Time;durP1;ratioP1;P1;durP2;ratioP2;P2;SDS_P1;SDS_P2;PMS_P1;PMS_P2;Temp;Humidity;BMP_temperature;BMP_pressure;BME280_temperature;BME280_humidity;BME280_pressure;Samples;Min_cycle;Max_cycle;Signal;HPM_P1;HPM_P2
2022/06/16 00:01:06;;;;;;;7.07;4.55;;;15.50;99.90;;;;;;5080487;28;20044;-70
2022/06/16 00:03:31;;;;;;;7.97;4.32;;;15.00;99.90;;;;;;5056679;28;20044;-70
2022/06/16 00:05:57;;;;;;;7.40;3.78;;;14.90;99.90;;;;;;5077719;28;20085;-71
2022/06/16 00:08:23;;;;;;;7.20;3.70;;;14.90;99.90;;;;;;5056997;28;20032;-70
2022/06/16 00:13:37;;;;;;;9.50;4.22;;;15.00;99.90;;;;;;5095347;28;20227;-71
2022/06/16 00:16:04;;;;;;;8.13;4.18;;;14.80;99.90;;;;;;5048982;28;20039;-70
2022/06/16 00:18:30;;;;;;;8.90;3.92;;;14.90;99.90;;;;;;5049758;28;20044;-70
2022/06/16 00:20:55;;;;;;;5.65;4.07;;;14.90;99.90;;;;;;5039361;28;20070;-70
2022/06/16 00:23:21;;;;;;;8.32;5.07;;;15.30;99.90;;;;;;5066282;28;20502;-71
2022/06/16 00:25:47;;;;;;;9.48;4.63;;;15.00;99.90;;;;;;5065683;28;20063;-70
2022/06/16 00:28:14;;;;;;;5.95;3.90;;;14.90;99.90;;;;;;5057664;28;20071;-70
2022/06/16 00:30:40;;;;;;;8.25;4.05;;;14.90;99.90;;;;;;5049404;28;20040;-70
2022/06/16 00:33:06;;;;;;;9.52;4.93;;;14.90;99.90;;;;;;5051920;28;20047;-70
2022/06/16 00:35:32;;;;;;;6.88;3.83;;;14.90;99.90;;;;;;5065084;28;20040;-70
2022/06/16 00:37:57;;;;;;;5.90;3.88;;;15.00;99.90;;;;;;5062983;28;20047;-71
2022/06/16 00:40:23;;;;;;;7.65;4.10;;;14.70;99.90;;;;;;5040526;28;20044;-71
2022/06/16 00:42:49;;;;;;;6.57;4.28;;;14.80;99.90;;;;;;5062126;28;20083;-70
2022/06/16 00:45:54;;;;;;;6.60;3.85;;;14.80;99.90;;;;;;5070457;28;20454;-70
2022/06/16 00:48:32;;;;;;;9.27;4.85;;;14.60;99.90;;;;;;5045415;28;20033;-70
2022/06/16 00:51:21;;;;;;;5.20;3.17;;;14.50;99.90;;;;;;5070597;28;20048;-70
2022/06/16 00:53:47;;;;;;;7.63;4.47;;;14.60;99.90;;;;;;5034830;28;20131;-70
2022/06/16 00:56:19;;;;;;;8.52;3.92;;;14.70;99.90;;;;;;5055410;28;20049;-70
2022/06/16 00:58:54;;;;;;;7.60;3.58;;;15.40;99.90;;;;;;5062230;28;20115;-72
2022/06/16 01:01:21;;;;;;;8.45;4.60;;;14.60;99.90;;;;;;5040992;28;20048;-71
2022/06/16 01:06:32;;;;;;;7.55;3.90;;;14.70;99.90;;;;;;5064187;28;20449;-70
2022/06/16 01:09:11;;;;;;;9.35;4.30;;;14.90;99.90;;;;;;5050385;28;20093;-70
2022/06/16 01:15:17;;;;;;;6.53;4.10;;;14.60;99.90;;;;;;5046322;28;20044;-70
2022/06/16 01:18:11;;;;;;;8.40;3.55;;;14.80;99.90;;;;;;5047013;28;20413;-70
2022/06/16 01:20:52;;;;;;;7.25;3.55;;;14.70;99.90;;;;;;5058845;28;20075;-70
2022/06/16 01:23:35;;;;;;;7.38;4.28;;;14.60;99.90;;;;;;5044585;28;20421;-70
2022/06/16 01:26:12;;;;;;;8.18;3.70;;;14.90;99.90;;;;;;5040514;28;20028;-70
2022/06/16 01:29:05;;;;;;;8.10;3.15;;;14.80;99.90;;;;;;5064297;28;20044;-71
2022/06/16 01:31:33;;;;;;;4.75;3.20;;;14.80;99.90;;;;;;5054896;28;20410;-70
2022/06/16 01:34:19;;;;;;;8.30;3.35;;;14.70;99.90;;;;;;5040028;28;20562;-71
2022/06/16 01:36:58;;;;;;;6.38;3.40;;;14.70;99.90;;;;;;5047931;28;20444;-71
2022/06/16 01:39:45;;;;;;;5.68;3.83;;;14.90;99.90;;;;;;5060294;28;20032;-70
2022/06/16 01:42:16;;;;;;;10.52;3.70;;;14.70;99.90;;;;;;5061102;28;20037;-70
2022/06/16 01:44:55;;;;;;;7.65;4.22;;;14.70;99.90;;;;;;5068310;28;20041;-70
2022/06/16 01:47:23;;;;;;;12.32;4.35;;;14.80;99.90;;;;;;5058609;28;20043;-70
2022/06/16 01:49:57;;;;;;;8.32;4.25;;;15.00;99.90;;;;;;5061242;28;20037;-70
2022/06/16 01:52:51;;;;;;;8.20;3.92;;;14.70;99.90;;;;;;5042262;28;20052;-70
2022/06/16 01:55:23;;;;;;;6.65;4.22;;;14.60;99.90;;;;;;5062461;28;20042;-70
2022/06/16 01:57:55;;;;;;;9.77;3.78;;;14.70;99.90;;;;;;5065204;28;20036;-70
2022/06/16 02:00:24;;;;;;;9.63;3.97;;;14.80;99.90;;;;;;5053799;28;20032;-70
2022/06/16 02:03:05;;;;;;;4.85;3.67;;;14.70;99.90;;;;;;5070707;28;20040;-70
2022/06/16 02:05:47;;;;;;;7.20;3.67;;;15.20;99.90;;;;;;5042333;28;20032;-71
2022/06/16 02:08:17;;;;;;;7.75;3.60;;;14.50;99.90;;;;;;5051352;28;20269;-68
2022/06/16 02:10:47;;;;;;;7.68;4.28;;;14.90;99.90;;;;;;5063053;28;20039;-68
2022/06/16 02:13:18;;;;;;;5.47;3.03;;;14.40;99.90;;;;;;5058217;28;20085;-69
2022/06/16 02:16:16;;;;;;;5.00;3.65;;;14.30;99.90;;;;;;5061208;28;20040;-68
2022/06/16 02:18:44;;;;;;;10.27;4.00;;;14.40;99.90;;;;;;5063988;28;20399;-67
2022/06/16 02:21:36;;;;;;;6.45;3.17;;;14.90;99.90;;;;;;5037418;28;20068;-68
2022/06/16 02:24:08;;;;;;;7.88;3.40;;;14.50;99.90;;;;;;5061550;28;20040;-69
2022/06/16 02:26:34;;;;;;;10.77;4.23;;;14.50;99.90;;;;;;5057317;28;20045;-69
2022/06/16 02:29:33;;;;;;;7.00;3.50;;;14.50;99.90;;;;;;5060381;28;20028;-68
2022/06/16 02:31:59;;;;;;;9.00;3.47;;;14.60;99.90;;;;;;5057900;28;20141;-68
2022/06/16 02:34:32;;;;;;;9.18;4.20;;;14.70;99.90;;;;;;5039679;28;20067;-68
2022/06/16 02:37:23;;;;;;;7.20;3.72;;;14.60;99.90;;;;;;5060880;28;20043;-68
2022/06/16 02:40:10;;;;;;;7.20;3.63;;;14.40;99.90;;;;;;5046673;28;20044;-68
2022/06/16 02:42:46;;;;;;;7.53;3.80;;;14.50;99.90;;;;;;5059519;28;20134;-68
2022/06/16 02:45:34;;;;;;;9.77;4.03;;;14.30;99.90;;;;;;5040230;28;20044;-68
2022/06/16 02:48:12;;;;;;;7.78;4.00;;;14.30;99.90;;;;;;5057952;28;20028;-68
2022/06/16 02:51:09;;;;;;;8.63;3.95;;;14.40;99.90;;;;;;5039971;28;20032;-68
2022/06/16 02:56:55;;;;;;;7.82;3.67;;;14.30;99.90;;;;;;5058158;28;20059;-68
2022/06/16 02:59:35;;;;;;;10.77;4.20;;;14.30;99.90;;;;;;5055857;28;20131;-68
2022/06/16 03:02:07;;;;;;;6.82;3.38;;;14.40;99.90;;;;;;5060867;28;20043;-68
2022/06/16 03:04:42;;;;;;;6.13;3.03;;;14.50;99.90;;;;;;5047997;28;20033;-68
2022/06/16 03:07:11;;;;;;;4.32;2.47;;;14.50;99.90;;;;;;5063103;28;20590;-68
2022/06/16 03:09:37;;;;;;;8.07;3.25;;;14.60;99.90;;;;;;5056356;28;20498;-69
2022/06/16 03:12:08;;;;;;;5.10;2.67;;;14.20;99.90;;;;;;5062349;28;20052;-68
2022/06/16 03:14:34;;;;;;;7.28;3.38;;;14.00;99.90;;;;;;5060625;28;20060;-68
2022/06/16 03:17:01;;;;;;;5.65;2.95;;;14.00;99.90;;;;;;5044128;28;20486;-68
2022/06/16 03:19:28;;;;;;;7.15;2.72;;;14.10;99.90;;;;;;5046685;28;20466;-68
2022/06/16 03:21:54;;;;;;;5.90;2.95;;;14.30;99.90;;;;;;5053566;28;20548;-68
2022/06/16 03:24:20;;;;;;;6.78;2.72;;;14.00;99.90;;;;;;5048184;28;20055;-68
2022/06/16 03:26:47;;;;;;;9.23;3.50;;;13.80;99.90;;;;;;5062329;28;20040;-68
2022/06/16 03:29:13;;;;;;;7.80;3.40;;;14.00;99.90;;;;;;5076396;28;20028;-68
2022/06/16 03:31:39;;;;;;;7.40;3.00;;;13.80;99.90;;;;;;5081550;28;20505;-68
2022/06/16 03:34:04;;;;;;;7.20;3.15;;;13.90;99.90;;;;;;5062777;28;20040;-68
2022/06/16 03:36:31;;;;;;;6.60;2.78;;;14.10;99.90;;;;;;5041844;28;20075;-68
2022/06/16 03:38:57;;;;;;;7.28;3.00;;;14.10;99.90;;;;;;5046241;28;20032;-68
2022/06/16 03:41:23;;;;;;;6.95;3.00;;;14.40;99.90;;;;;;5054477;28;20506;-68
2022/06/16 03:43:48;;;;;;;8.10;2.88;;;14.00;99.90;;;;;;5066865;28;20040;-70
2022/06/16 03:46:16;;;;;;;7.22;3.15;;;14.10;99.90;;;;;;5062741;28;20036;-68
2022/06/16 03:48:42;;;;;;;4.60;2.95;;;14.10;99.90;;;;;;5039511;28;20036;-68
2022/06/16 03:51:09;;;;;;;6.45;3.40;;;14.30;99.90;;;;;;5044220;28;20382;-68
2022/06/16 03:53:36;;;;;;;5.60;3.58;;;14.40;99.90;;;;;;5064141;28;20063;-68
2022/06/16 03:56:02;;;;;;;5.13;3.05;;;14.00;99.90;;;;;;5043693;28;20041;-68
2022/06/16 03:58:28;;;;;;;5.97;3.40;;;14.10;99.90;;;;;;5050559;28;20040;-68
2022/06/16 04:00:54;;;;;;;7.70;3.20;;;14.10;99.90;;;;;;5047441;28;20517;-68
2022/06/16 04:06:04;;;;;;;4.38;2.53;;;14.60;99.90;;;;;;5059794;28;20120;-69
2022/06/16 04:08:30;;;;;;;4.95;2.90;;;14.40;99.90;;;;;;5057114;28;20573;-68
2022/06/16 04:10:56;;;;;;;4.85;2.83;;;14.40;99.90;;;;;;5050367;28;20035;-68
2022/06/16 04:13:22;;;;;;;6.03;3.53;;;14.40;99.90;;;;;;5041564;28;20414;-68
2022/06/16 04:15:48;;;;;;;4.75;3.17;;;14.50;99.90;;;;;;5029963;28;20036;-68
2022/06/16 04:18:14;;;;;;;4.40;3.00;;;14.60;99.90;;;;;;5051026;28;20168;-68
2022/06/16 04:20:40;;;;;;;4.05;3.25;;;14.40;99.90;;;;;;5040555;28;20123;-68
2022/06/16 04:23:10;;;;;;;6.05;3.65;;;14.60;99.90;;;;;;5053961;28;20043;-68
2022/06/16 04:25:35;;;;;;;9.05;5.30;;;14.60;99.90;;;;;;5046801;28;20032;-68
2022/06/16 04:28:04;;;;;;;7.68;4.30;;;14.60;99.90;;;;;;5069799;28;20041;-69
2022/06/16 04:30:31;;;;;;;9.30;3.67;;;14.90;99.90;;;;;;5048038;28;20101;-68
2022/06/16 04:32:58;;;;;;;6.90;3.38;;;14.50;99.90;;;;;;5050597;28;20494;-69
2022/06/16 04:35:27;;;;;;;9.48;3.95;;;14.70;99.90;;;;;;5043198;28;20040;-68
2022/06/16 04:37:53;;;;;;;8.60;3.88;;;15.10;99.90;;;;;;5048078;28;20041;-68
2022/06/16 04:40:20;;;;;;;5.43;3.05;;;15.10;99.90;;;;;;5088268;28;20047;-68
2022/06/16 04:42:45;;;;;;;6.55;3.42;;;14.90;99.90;;;;;;5043769;28;20528;-69
2022/06/16 04:45:12;;;;;;;9.20;4.25;;;14.80;99.90;;;;;;5064441;28;20036;-68
2022/06/16 04:47:41;;;;;;;8.50;3.67;;;15.40;99.90;;;;;;5040531;28;20115;-68
2022/06/16 04:50:08;;;;;;;6.18;3.63;;;15.00;99.90;;;;;;5049332;28;20060;-69
2022/06/16 04:52:33;;;;;;;6.88;3.63;;;14.90;99.90;;;;;;5058714;28;20073;-68
2022/06/16 04:54:59;;;;;;;6.68;3.60;;;15.10;99.90;;;;;;5066220;28;20024;-69
2022/06/16 04:57:25;;;;;;;6.97;3.72;;;15.00;99.90;;;;;;5047916;28;20032;-70
2022/06/16 04:59:50;;;;;;;7.65;3.15;;;14.90;99.90;;;;;;5046061;28;20376;-70
2022/06/16 05:02:16;;;;;;;7.43;3.38;;;14.90;99.90;;;;;;5047361;28;20067;-70
2022/06/16 05:04:44;;;;;;;5.88;3.05;;;14.90;99.90;;;;;;5063446;28;20036;-70
2022/06/16 05:07:11;;;;;;;9.35;3.25;;;15.40;99.90;;;;;;5043751;28;20441;-70
2022/06/16 05:09:36;;;;;;;7.53;3.30;;;15.10;99.90;;;;;;5055271;28;20037;-70
2022/06/16 05:12:02;;;;;;;6.88;3.47;;;15.10;99.90;;;;;;5055095;28;20040;-70
2022/06/16 05:14:28;;;;;;;8.00;3.67;;;15.20;99.90;;;;;;5038706;28;20159;-70
2022/06/16 05:16:54;;;;;;;5.15;3.13;;;14.90;99.90;;;;;;5068847;22;20116;-73
2022/06/16 05:19:19;;;;;;;6.55;3.75;;;15.00;99.90;;;;;;5036212;28;20056;-73
2022/06/16 05:21:45;;;;;;;7.25;3.35;;;15.00;99.90;;;;;;5049343;28;20029;-73
2022/06/16 05:24:11;;;;;;;7.05;3.30;;;15.20;99.90;;;;;;5062953;28;20254;-73
2022/06/16 05:26:36;;;;;;;8.23;3.55;;;15.40;99.90;;;;;;5040004;28;20111;-72
2022/06/16 05:29:02;;;;;;;4.97;2.95;;;15.30;99.90;;;;;;5038846;28;20442;-73
2022/06/16 05:31:28;;;;;;;8.25;4.22;;;15.30;99.90;;;;;;5023003;28;20068;-73
2022/06/16 05:33:53;;;;;;;5.43;2.85;;;15.60;99.90;;;;;;5038552;28;20083;-73
2022/06/16 05:36:19;;;;;;;9.52;3.05;;;15.60;99.90;;;;;;5019757;28;20083;-73
2022/06/16 05:38:45;;;;;;;5.80;3.10;;;15.80;99.90;;;;;;5034104;28;20098;-74
2022/06/16 05:41:14;;;;;;;6.53;2.50;;;15.50;99.90;;;;;;5042532;28;20411;-74
2022/06/16 05:43:40;;;;;;;6.03;2.30;;;16.20;99.90;;;;;;5039918;28;20096;-75
2022/06/16 05:46:08;;;;;;;8.38;2.88;;;16.00;99.90;;;;;;5029752;28;20088;-74
2022/06/16 05:48:34;;;;;;;6.55;2.40;;;15.90;99.90;;;;;;5049232;28;20052;-75
2022/06/16 05:51:11;;;;;;;7.22;2.42;;;16.10;99.90;;;;;;5018940;28;20040;-75
2022/06/16 05:53:38;;;;;;;4.00;2.17;;;16.00;99.90;;;;;;5037154;28;20041;-74
2022/06/16 05:56:04;;;;;;;6.15;2.28;;;17.20;99.90;;;;;;5026459;28;20139;-74
2022/06/16 05:58:30;;;;;;;5.95;2.05;;;16.30;99.90;;;;;;5020463;28;20124;-74
2022/06/16 06:00:56;;;;;;;5.65;1.80;;;17.00;99.90;;;;;;5039492;28;20466;-74
2022/06/16 06:03:22;;;;;;;5.05;2.28;;;16.30;99.90;;;;;;5044484;28;20033;-73
2022/06/16 06:05:48;;;;;;;6.38;1.92;;;16.50;99.90;;;;;;5018637;28;20128;-73
2022/06/16 06:16:35;;;;;;;4.82;3.05;;;16.70;99.90;;;;;;5031461;28;20124;-73
2022/06/16 06:19:35;;;;;;;4.35;2.25;;;16.80;99.90;;;;;;5021907;28;20081;-73
2022/06/16 06:22:13;;;;;;;5.88;1.92;;;16.80;99.90;;;;;;5038044;28;20053;-73
2022/06/16 06:24:43;;;;;;;2.63;1.50;;;17.30;99.90;;;;;;5035888;28;20042;-73
2022/06/16 06:27:15;;;;;;;4.28;1.80;;;17.00;99.90;;;;;;5035844;28;20104;-72
2022/06/16 06:29:45;;;;;;;4.38;2.15;;;17.30;99.90;;;;;;5043694;28;20117;-73
2022/06/16 06:32:11;;;;;;;4.53;1.75;;;17.40;99.90;;;;;;5034096;28;20530;-73
2022/06/16 06:34:37;;;;;;;6.25;1.75;;;18.00;99.90;;;;;;5052405;28;20096;-73
2022/06/16 06:37:04;;;;;;;3.70;2.05;;;17.50;99.90;;;;;;5043366;28;20040;-72
2022/06/16 06:39:30;;;;;;;3.20;1.60;;;17.60;99.90;;;;;;5044807;28;20536;-72
2022/06/16 06:41:55;;;;;;;5.05;1.50;;;17.50;99.90;;;;;;5041060;28;20482;-72
2022/06/16 06:44:21;;;;;;;6.72;1.45;;;17.70;99.90;;;;;;5041597;28;20048;-73
2022/06/16 06:46:47;;;;;;;3.88;1.50;;;18.00;99.90;;;;;;5046541;28;20135;-73
2022/06/16 06:49:12;;;;;;;2.58;1.27;;;17.80;99.90;;;;;;5042066;28;20033;-73
2022/06/16 06:51:39;;;;;;;4.65;1.80;;;18.10;99.90;;;;;;5030499;28;20039;-73
2022/06/16 06:54:05;;;;;;;3.30;1.67;;;18.00;99.90;;;;;;5051367;28;20039;-73
2022/06/16 06:56:31;;;;;;;3.45;1.45;;;18.30;99.90;;;;;;5041079;28;20037;-74
2022/06/16 06:59:01;;;;;;;7.07;1.85;;;18.20;99.90;;;;;;5049956;28;20052;-74
2022/06/16 07:01:26;;;;;;;2.80;1.60;;;18.30;99.90;;;;;;5042368;28;20581;-74
2022/06/16 07:03:52;;;;;;;2.92;1.55;;;18.40;99.90;;;;;;5029620;28;20077;-74
2022/06/16 07:06:19;;;;;;;3.80;2.00;;;18.40;99.90;;;;;;5030775;28;20026;-74
2022/06/16 07:08:46;;;;;;;5.15;2.20;;;18.50;99.90;;;;;;5030618;28;20037;-74
2022/06/16 07:11:12;;;;;;;4.75;1.40;;;18.50;99.90;;;;;;5029845;28;20462;-73
2022/06/16 07:13:37;;;;;;;5.15;1.80;;;18.40;99.90;;;;;;5031734;28;20064;-74
2022/06/16 07:16:04;;;;;;;2.10;1.60;;;18.80;99.90;;;;;;5032413;28;20029;-74
2022/06/16 07:18:30;;;;;;;3.63;1.70;;;18.80;99.90;;;;;;5050360;28;20043;-74
2022/06/16 07:20:55;;;;;;;8.50;2.75;;;18.80;99.90;;;;;;5048387;28;20045;-74
2022/06/16 07:23:21;;;;;;;7.38;1.95;;;18.70;99.90;;;;;;5049272;28;20065;-74
2022/06/16 07:25:48;;;;;;;9.63;2.70;;;19.10;99.90;;;;;;5035712;28;20066;-74
2022/06/16 07:28:14;;;;;;;7.78;2.35;;;19.00;99.90;;;;;;5053693;28;20541;-74
2022/06/16 07:30:41;;;;;;;8.27;2.95;;;19.00;99.90;;;;;;5035789;28;20037;-74
2022/06/16 07:33:07;;;;;;;11.50;3.60;;;19.00;99.90;;;;;;5039794;28;20399;-75
2022/06/16 07:35:34;;;;;;;12.10;2.88;;;19.00;99.90;;;;;;5017208;28;20041;-74
2022/06/16 07:37:59;;;;;;;10.45;2.30;;;20.70;99.90;;;;;;5033867;28;20037;-74
2022/06/16 07:40:25;;;;;;;5.05;2.10;;;19.40;99.90;;;;;;5032235;28;20395;-74
2022/06/16 07:42:56;;;;;;;7.80;2.42;;;19.30;99.90;;;;;;5033691;28;20048;-74
2022/06/16 07:45:23;;;;;;;10.80;1.90;;;19.30;99.90;;;;;;5034750;28;20029;-74
2022/06/16 07:47:50;;;;;;;4.40;1.73;;;20.00;99.90;;;;;;5033701;28;20065;-74
2022/06/16 07:50:16;;;;;;;6.25;2.00;;;19.70;99.90;;;;;;5033996;28;20509;-73
2022/06/16 07:52:41;;;;;;;2.50;1.55;;;19.40;99.90;;;;;;5034863;28;20033;-74
2022/06/16 07:55:08;;;;;;;4.82;2.00;;;20.90;99.90;;;;;;5033507;28;20029;-74
2022/06/16 07:57:40;;;;;;;3.05;1.90;;;19.40;99.90;;;;;;5033744;28;20037;-74
2022/06/16 08:00:06;;;;;;;6.45;2.05;;;19.50;99.90;;;;;;5037790;28;20037;-74
2022/06/16 08:02:32;;;;;;;4.63;1.85;;;19.70;99.90;;;;;;5016515;28;20048;-74
2022/06/16 08:04:57;;;;;;;3.20;1.58;;;20.00;99.90;;;;;;5027367;28;20028;-74
2022/06/16 08:07:23;;;;;;;4.55;1.80;;;19.70;99.90;;;;;;5036276;28;20083;-74
2022/06/16 08:09:49;;;;;;;3.47;1.40;;;20.10;99.90;;;;;;5036240;28;20036;-74
2022/06/16 08:12:15;;;;;;;4.72;1.70;;;20.10;99.90;;;;;;5036615;28;20041;-74
2022/06/16 08:14:43;;;;;;;2.53;1.50;;;20.30;99.90;;;;;;5036461;28;20040;-74
2022/06/16 08:17:16;;;;;;;5.45;1.80;;;20.50;99.90;;;;;;5034300;28;20510;-74
2022/06/16 08:19:42;;;;;;;4.88;1.98;;;20.60;99.90;;;;;;5052554;28;20045;-74
2022/06/16 08:22:08;;;;;;;4.10;1.75;;;20.50;99.90;;;;;;5053128;28;20051;-75
2022/06/16 08:24:33;;;;;;;5.75;1.70;;;20.50;99.80;;;;;;5054204;28;20063;-75
2022/06/16 08:27:01;;;;;;;4.68;1.90;;;20.60;99.90;;;;;;5036139;28;20037;-74
2022/06/16 08:29:26;;;;;;;6.72;2.08;;;20.60;99.90;;;;;;5034997;28;20049;-74
2022/06/16 08:31:52;;;;;;;6.25;1.58;;;20.70;99.90;;;;;;5052989;28;20075;-74
2022/06/16 08:34:18;;;;;;;3.53;1.70;;;20.60;99.40;;;;;;5032907;28;20045;-74
2022/06/16 08:36:44;;;;;;;3.30;1.70;;;20.90;99.90;;;;;;5042330;28;20037;-74
2022/06/16 08:39:10;;;;;;;4.38;2.03;;;20.90;99.90;;;;;;5027924;28;20336;-74
2022/06/16 08:41:47;;;;;;;5.85;1.88;;;20.40;99.40;;;;;;5035834;28;20041;-74
2022/06/16 08:44:40;;;;;;;4.82;2.60;;;20.50;99.90;;;;;;5035797;28;20044;-75
2022/06/16 08:47:15;;;;;;;3.97;1.90;;;20.40;99.80;;;;;;5035878;28;20079;-74
2022/06/16 08:49:55;;;;;;;5.43;2.42;;;20.10;99.90;;;;;;5045840;28;20406;-75
2022/06/16 08:52:31;;;;;;;5.63;2.33;;;20.20;99.90;;;;;;5032581;28;20033;-74
2022/06/16 08:55:28;;;;;;;7.68;3.00;;;19.90;99.90;;;;;;5015884;28;20200;-74
2022/06/16 08:58:20;;;;;;;7.53;2.75;;;20.00;99.90;;;;;;5032586;28;20041;-74
2022/06/16 09:00:53;;;;;;;2.80;2.08;;;20.30;99.90;;;;;;5031599;28;20045;-74
2022/06/16 09:03:28;;;;;;;;;;;20.60;99.90;;;;;;5032752;28;20060;-74
2022/06/16 09:06:04;;;;;;;7.22;2.35;;;20.40;99.90;;;;;;5015645;28;19924;-74
2022/06/16 09:08:39;;;;;;;7.55;2.67;;;21.20;99.90;;;;;;5015726;28;20033;-74
2022/06/16 09:11:28;;;;;;;5.75;2.35;;;21.10;99.90;;;;;;5015113;28;20099;-75
2022/06/16 09:13:57;;;;;;;6.05;2.90;;;21.10;99.90;;;;;;5015685;28;20156;-74
2022/06/16 09:16:36;;;;;;;4.80;2.85;;;21.00;99.90;;;;;;5031934;28;20499;-74
2022/06/16 09:19:33;;;;;;;6.28;3.30;;;20.90;99.90;;;;;;5015304;28;20415;-74
2022/06/16 09:22:25;;;;;;;6.15;3.13;;;21.00;99.90;;;;;;5015767;28;20048;-75
2022/06/16 09:25:09;;;;;;;5.80;3.60;;;21.00;99.90;;;;;;5041801;28;20050;-75
2022/06/16 09:27:45;;;;;;;2.80;2.33;;;21.20;99.80;;;;;;5015169;28;20284;-75
2022/06/16 09:30:24;;;;;;;5.65;3.00;;;21.10;99.90;;;;;;5014764;28;20064;-75
2022/06/16 09:32:56;;;;;;;5.43;3.10;;;21.30;99.90;;;;;;5031477;28;20041;-74
2022/06/16 09:35:29;;;;;;;7.70;3.97;;;21.30;99.50;;;;;;5020879;28;20044;-75
2022/06/16 09:38:08;;;;;;;5.45;3.70;;;21.60;99.90;;;;;;5040935;28;20037;-74
2022/06/16 09:40:43;;;;;;;6.32;3.30;;;21.70;99.90;;;;;;5040308;28;20037;-76
2022/06/16 09:43:18;;;;;;;7.10;3.53;;;21.10;99.50;;;;;;5020769;28;20487;-75
2022/06/16 09:45:54;;;;;;;7.43;2.38;;;21.40;99.60;;;;;;5035154;28;20036;-76
2022/06/16 09:48:35;;;;;;;5.57;3.10;;;21.50;99.50;;;;;;5023800;28;20040;-75
2022/06/16 09:51:22;;;;;;;6.68;3.05;;;21.60;99.80;;;;;;5034960;28;20036;-75
2022/06/16 09:54:09;;;;;;;7.90;3.08;;;21.60;98.70;;;;;;5038389;28;20037;-75
2022/06/16 09:57:09;;;;;;;6.97;3.22;;;21.60;99.30;;;;;;5030636;28;20040;-76
2022/06/16 09:59:51;;;;;;;8.07;2.80;;;21.80;98.70;;;;;;5020607;28;20117;-76
2022/06/16 10:02:23;;;;;;;7.00;2.73;;;22.10;99.30;;;;;;5038762;28;20029;-77
2022/06/16 10:04:50;;;;;;;7.07;2.95;;;21.90;99.00;;;;;;5042690;28;20692;-76
2022/06/16 10:07:27;;;;;;;5.32;2.80;;;21.90;99.10;;;;;;5042663;28;20028;-76
2022/06/16 10:10:21;;;;;;;5.47;3.42;;;22.40;99.00;;;;;;5041575;28;20479;-76
2022/06/16 10:13:25;;;;;;;4.85;2.60;;;21.20;97.80;;;;;;5042880;28;20045;-75
2022/06/16 10:16:02;;;;;;;;;;;21.90;98.30;;;;;;5041548;28;20611;-74
2022/06/16 10:18:28;;;;;;;7.53;3.05;;;23.20;98.70;;;;;;5048714;28;19991;-76
2022/06/16 10:20:53;;;;;;;4.07;2.72;;;22.30;99.00;;;;;;5047941;28;20105;-76
2022/06/16 10:23:24;;;;;;;6.13;2.92;;;22.30;98.90;;;;;;5046958;28;20045;-77
2022/06/16 10:26:04;;;;;;;5.53;2.10;;;22.30;98.30;;;;;;5053967;28;20390;-74
2022/06/16 10:28:48;;;;;;;6.78;2.78;;;22.40;98.30;;;;;;5051500;28;20037;-76
2022/06/16 10:31:43;;;;;;;5.57;2.17;;;22.20;97.80;;;;;;5048885;28;20029;-75
2022/06/16 10:34:30;;;;;;;6.38;2.50;;;22.40;98.00;;;;;;5036314;28;20454;-77
2022/06/16 10:37:12;;;;;;;5.82;2.60;;;22.50;98.10;;;;;;5054173;28;20222;-77
2022/06/16 10:39:46;;;;;;;5.03;2.55;;;22.50;98.00;;;;;;5055045;28;20045;-78
2022/06/16 10:42:47;;;;;;;4.93;2.88;;;22.40;99.00;;;;;;5047598;28;20045;-78
2022/06/16 10:45:15;;;;;;;5.50;2.47;;;22.60;98.40;;;;;;5049053;28;20037;-77
2022/06/16 10:47:52;;;;;;;8.30;3.33;;;22.90;98.20;;;;;;5051359;28;20957;-77
2022/06/16 10:50:25;;;;;;;4.13;2.47;;;22.90;97.90;;;;;;5049359;28;20486;-77
2022/06/16 10:53:01;;;;;;;3.88;3.00;;;23.70;98.50;;;;;;5051097;28;20589;-78
2022/06/16 10:55:34;;;;;;;5.07;2.97;;;23.00;98.00;;;;;;5046826;28;20099;-77
2022/06/16 10:58:16;;;;;;;4.93;2.95;;;23.20;98.60;;;;;;5039872;28;20033;-77
2022/06/16 11:00:41;;;;;;;7.72;2.65;;;24.00;97.80;;;;;;5039088;28;20068;-76
2022/06/16 11:03:10;;;;;;;8.15;3.40;;;24.20;98.30;;;;;;5042096;28;20076;-76
2022/06/16 11:05:51;;;;;;;3.50;2.40;;;23.10;97.60;;;;;;5038101;28;20037;-76
2022/06/16 11:08:18;;;;;;;5.93;3.30;;;22.70;97.90;;;;;;5051071;28;20048;-77
2022/06/16 11:10:54;;;;;;;7.90;4.03;;;22.50;98.30;;;;;;5052278;28;20037;-76
2022/06/16 11:13:29;;;;;;;4.88;3.03;;;22.00;98.50;;;;;;5051758;28;20032;-77
2022/06/16 11:15:56;;;;;;;14.57;3.25;;;22.40;99.00;;;;;;5075494;22;20081;-70
2022/06/16 11:18:25;;;;;;;3.58;2.60;;;22.50;98.40;;;;;;4992619;28;20037;-70
2022/06/16 11:20:55;;;;;;;7.97;2.83;;;22.30;98.30;;;;;;4992494;28;20034;-70
2022/06/16 11:23:26;;;;;;;7.93;2.88;;;22.50;98.10;;;;;;4993655;28;20038;-70
2022/06/16 11:26:15;;;;;;;2.92;2.63;;;21.80;98.30;;;;;;4993323;28;20038;-70
2022/06/16 11:28:53;;;;;;;9.32;3.92;;;22.00;98.80;;;;;;4982963;28;20042;-70
2022/06/16 11:31:22;;;;;;;4.20;3.15;;;22.20;99.00;;;;;;5010833;28;20041;-70
2022/06/16 11:34:12;;;;;;;4.55;2.60;;;23.00;98.20;;;;;;4993103;28;20052;-71
2022/06/16 11:37:08;;;;;;;7.10;2.55;;;22.80;96.90;;;;;;4976761;28;20034;-71
2022/06/16 11:40:19;;;;;;;7.47;2.90;;;22.90;97.00;;;;;;5009176;28;20042;-70
2022/06/16 11:43:12;;;;;;;5.47;2.58;;;22.90;96.50;;;;;;4914588;29;20047;-72
2022/06/16 11:46:08;;;;;;;4.10;1.73;;;23.40;97.60;;;;;;4915458;29;20044;-70
2022/06/16 11:49:01;;;;;;;6.18;2.60;;;23.30;96.10;;;;;;4982747;28;20530;-70
2022/06/16 11:51:37;;;;;;;4.33;2.50;;;23.20;95.80;;;;;;5025140;28;20097;-70
2022/06/16 11:54:12;;;;;;;6.53;2.75;;;23.60;96.90;;;;;;5013426;28;20092;-73
2022/06/16 11:56:52;;;;;;;4.32;2.55;;;24.00;96.20;;;;;;5013344;28;20037;-71
2022/06/16 11:59:47;;;;;;;5.22;2.67;;;23.50;96.00;;;;;;5012629;28;20029;-70
2022/06/16 12:02:35;;;;;;;6.07;2.42;;;23.60;95.50;;;;;;5013402;28;20045;-71
2022/06/16 12:05:27;;;;;;;3.53;2.30;;;23.30;95.90;;;;;;5031516;28;20038;-71
2022/06/16 12:08:20;;;;;;;4.95;2.55;;;22.60;96.00;;;;;;5004414;28;20120;-70
2022/06/16 12:10:50;;;;;;;10.30;3.63;;;22.60;96.20;;;;;;4968034;28;20499;-70
2022/06/16 12:13:39;;;;;;;10.93;3.20;;;22.90;97.00;;;;;;4996280;28;20052;-71
2022/06/16 12:16:23;;;;;;;4.18;2.60;;;22.30;96.10;;;;;;4996153;28;20411;-70
2022/06/16 12:19:01;;;;;;;14.45;4.00;;;22.20;95.90;;;;;;4979283;28;20500;-70
2022/06/16 12:21:51;;;;;;;5.53;2.88;;;22.50;96.30;;;;;;4996138;28;20061;-70
2022/06/16 12:24:28;;;;;;;7.00;3.22;;;23.00;96.10;;;;;;4995229;28;20089;-70
2022/06/16 12:27:05;;;;;;;7.80;2.90;;;23.10;96.20;;;;;;4993967;28;20458;-70
2022/06/16 12:29:37;;;;;;;5.90;2.88;;;22.70;96.30;;;;;;5013835;28;20029;-70
2022/06/16 12:32:24;;;;;;;4.37;3.47;;;22.70;96.90;;;;;;4996740;28;20092;-70
2022/06/16 12:35:17;;;;;;;3.97;2.50;;;23.00;97.50;;;;;;5014793;28;20038;-70
2022/06/16 12:37:56;;;;;;;5.43;2.90;;;22.70;96.50;;;;;;4996928;28;20049;-70
2022/06/16 12:40:30;;;;;;;4.63;2.50;;;22.90;96.60;;;;;;5013686;28;20369;-71
2022/06/16 12:43:02;;;;;;;5.72;3.10;;;23.00;97.40;;;;;;4995675;28;20069;-70
2022/06/16 12:45:38;;;;;;;4.72;2.40;;;23.10;96.60;;;;;;5012373;28;20038;-71
2022/06/16 12:48:11;;;;;;;5.35;2.53;;;23.20;96.40;;;;;;4995613;28;20037;-70
2022/06/16 12:50:41;;;;;;;3.83;2.15;;;23.60;96.60;;;;;;4985872;28;20440;-71
2022/06/16 12:53:31;;;;;;;6.97;2.75;;;23.50;96.00;;;;;;4999036;28;20132;-71
2022/06/16 12:56:08;;;;;;;4.22;2.33;;;23.30;95.90;;;;;;5015836;28;20034;-71
2022/06/16 12:58:41;;;;;;;4.85;2.40;;;23.30;95.50;;;;;;5015918;28;20081;-70
2022/06/16 13:01:08;;;;;;;4.93;2.83;;;24.00;96.10;;;;;;5015707;28;20037;-70
2022/06/16 13:03:47;;;;;;;5.30;2.35;;;23.90;95.40;;;;;;5033769;28;20365;-71
2022/06/16 13:06:16;;;;;;;3.80;2.17;;;24.00;95.30;;;;;;5015031;28;20068;-70
2022/06/16 13:08:46;;;;;;;5.15;1.90;;;23.40;95.20;;;;;;5014757;28;20557;-72
2022/06/16 13:11:29;;;;;;;4.90;2.28;;;23.80;95.70;;;;;;5009533;28;20034;-71
2022/06/16 13:14:07;;;;;;;4.38;2.13;;;23.90;95.70;;;;;;4995091;28;20077;-69
2022/06/16 13:16:35;;;;;;;2.90;1.77;;;24.00;95.20;;;;;;4978420;28;20053;-70
2022/06/16 13:19:18;;;;;;;3.78;2.45;;;24.90;95.10;;;;;;5013628;28;20093;-70
2022/06/16 13:21:51;;;;;;;3.35;1.63;;;24.70;95.00;;;;;;4996469;28;20045;-71
2022/06/16 13:24:22;;;;;;;3.55;2.00;;;25.40;95.20;;;;;;4995028;28;20038;-70
2022/06/16 13:27:07;;;;;;;4.75;2.40;;;24.50;94.90;;;;;;5002601;28;20373;-70
2022/06/16 13:29:50;;;;;;;4.43;2.28;;;24.30;94.30;;;;;;4995611;28;20112;-70
2022/06/16 13:32:50;;;;;;;5.28;2.25;;;24.30;94.70;;;;;;4991653;28;20030;-70
2022/06/16 13:35:16;;;;;;;3.85;2.40;;;24.40;93.90;;;;;;4991711;28;20041;-71
2022/06/16 13:37:47;;;;;;;8.23;2.83;;;24.70;94.60;;;;;;4996297;28;20034;-70
2022/06/16 13:40:22;;;;;;;4.85;2.55;;;23.60;94.20;;;;;;4979860;28;20034;-70
2022/06/16 13:42:54;;;;;;;5.25;2.28;;;24.00;94.70;;;;;;5013954;28;20045;-70